createdAt,value
2022-09-17T00:01:06.969Z,97728.13
2022-09-17T00:03:35.119Z,97722.81
2022-09-17T00:06:03.248Z,97717.66
2022-09-17T00:08:30.342Z,97719.59
2022-09-17T00:10:56.879Z,97707.31
2022-09-17T00:13:23.693Z,97696.81
2022-09-17T00:15:52.519Z,97687.31
2022-09-17T00:18:19.418Z,97688.84
2022-09-17T00:20:47.423Z,97688.84
2022-09-17T00:23:14.886Z,97696.56
2022-09-17T00:25:44.332Z,97697.41
2022-09-17T00:28:15.129Z,97706.06
2022-09-17T00:30:46.226Z,97693.63
2022-09-17T00:33:15.694Z,97688.31
2022-09-17T00:35:43.275Z,97687.03
2022-09-17T00:38:10.339Z,97687.44
2022-09-17T00:40:38.375Z,97692.03
2022-09-17T00:43:10.187Z,97684.47
2022-09-17T00:45:39.743Z,97672.91
2022-09-17T00:48:07.452Z,97663.13
2022-09-17T00:50:39.276Z,97654.59
2022-09-17T00:53:09.979Z,97651.34
2022-09-17T00:55:39.747Z,97658.53
2022-09-17T00:58:10.769Z,97641.69
2022-09-17T01:00:38.206Z,97663.84
2022-09-17T01:03:04.945Z,97662.00
2022-09-17T01:05:42.407Z,97661.19
2022-09-17T01:08:21.252Z,97654.88
2022-09-17T01:11:12.773Z,97656.56
2022-09-17T01:13:51.716Z,97651.41
2022-09-17T01:17:05.479Z,97628.47
2022-09-17T01:19:59.713Z,97635.75
2022-09-17T01:22:47.583Z,97640.44
2022-09-17T01:25:33.042Z,97612.91
2022-09-17T01:28:34.923Z,97620.31
2022-09-17T01:31:09.739Z,97621.31
2022-09-17T01:33:50.918Z,97624.09
2022-09-17T01:36:39.097Z,97629.66
2022-09-17T01:39:30.084Z,97616.00
2022-09-17T01:42:10.718Z,97609.16
2022-09-17T01:44:57.682Z,97610.25
2022-09-17T01:47:45.697Z,97590.97
2022-09-17T01:50:17.985Z,97602.84
2022-09-17T01:52:48.984Z,97601.75
2022-09-17T01:55:18.507Z,97601.63
2022-09-17T01:57:53.322Z,97617.56
2022-09-17T02:00:20.581Z,97617.44
2022-09-17T02:03:10.440Z,97628.88
2022-09-17T02:05:44.736Z,97624.41
2022-09-17T02:08:20.799Z,97625.41
2022-09-17T02:11:11.959Z,97626.34
2022-09-17T02:13:53.222Z,97627.19
2022-09-17T02:16:27.145Z,97617.44
2022-09-17T02:19:31.567Z,97621.75
2022-09-17T02:22:03.786Z,97619.38
2022-09-17T02:24:40.522Z,97613.16
2022-09-17T02:27:11.583Z,97625.44
2022-09-17T02:29:42.849Z,97633.56
2022-09-17T02:32:11.037Z,97634.66
2022-09-17T02:34:38.930Z,97635.38
2022-09-17T02:37:06.994Z,97631.75
2022-09-17T02:39:33.760Z,97629.22
2022-09-17T02:42:18.363Z,97633.56
2022-09-17T02:45:18.901Z,97621.13
2022-09-17T02:47:57.334Z,97607.88
2022-09-17T02:50:34.917Z,97608.59
2022-09-17T02:53:23.061Z,97612.06
2022-09-17T02:56:08.961Z,97605.47
2022-09-17T02:59:00.787Z,97606.88
2022-09-17T03:01:27.581Z,97605.94
2022-09-17T03:03:56.442Z,97596.97
2022-09-17T03:06:23.317Z,97590.84
2022-09-17T03:08:51.999Z,97589.84
2022-09-17T03:11:18.797Z,97588.75
2022-09-17T03:13:45.627Z,97590.56
2022-09-17T03:16:12.488Z,97586.09
2022-09-17T03:18:39.189Z,97586.94
2022-09-17T03:21:05.939Z,97574.94
2022-09-17T03:23:33.124Z,97585.16
2022-09-17T03:26:00.411Z,97586.38
2022-09-17T03:28:27.009Z,97594.91
2022-09-17T03:30:54.436Z,97584.28
2022-09-17T03:33:21.328Z,97561.34
2022-09-17T03:35:48.432Z,97578.97
2022-09-17T03:38:15.529Z,97573.66
2022-09-17T03:40:42.465Z,97564.16
2022-09-17T03:43:09.439Z,97566.56
2022-09-17T03:45:36.218Z,97568.25
2022-09-17T03:48:02.970Z,97570.91
2022-09-17T03:50:29.709Z,97569.34
2022-09-17T03:52:56.385Z,97576.59
2022-09-17T03:55:23.086Z,97582.50
2022-09-17T03:57:51.293Z,97585.16
2022-09-17T04:00:18.081Z,97590.31
2022-09-17T04:02:44.979Z,97584.97
2022-09-17T04:05:11.822Z,97583.44
2022-09-17T04:07:41.088Z,97578.84
2022-09-17T04:10:08.598Z,97573.66
2022-09-17T04:12:35.289Z,97568.25
2022-09-17T04:15:02.070Z,97565.47
2022-09-17T04:17:33.153Z,97561.13
2022-09-17T04:20:00.280Z,97559.31
2022-09-17T04:22:27.126Z,97528.84
2022-09-17T04:24:53.798Z,97525.50
2022-09-17T04:27:20.591Z,97540.44
2022-09-17T04:29:47.297Z,97544.06
2022-09-17T04:32:14.123Z,97557.91
2022-09-17T04:34:40.821Z,97561.78
2022-09-17T04:37:07.880Z,97585.28
2022-09-17T04:39:34.942Z,97608.31
2022-09-17T04:42:01.834Z,97598.34
2022-09-17T04:44:28.606Z,97602.44
2022-09-17T04:46:55.619Z,97608.69
2022-09-17T04:49:22.311Z,97619.47
2022-09-17T04:51:48.984Z,97626.69
2022-09-17T04:54:15.942Z,97625.72
2022-09-17T04:56:42.673Z,97612.34
2022-09-17T04:59:09.410Z,97602.56
2022-09-17T05:01:36.249Z,97598.25
2022-09-17T05:04:03.381Z,97597.69
2022-09-17T05:06:30.118Z,97599.38
2022-09-17T05:08:56.857Z,97598.53
2022-09-17T05:11:23.601Z,97601.06
2022-09-17T05:13:50.369Z,97600.09
2022-09-17T05:16:17.140Z,97599.09
2022-09-17T05:18:43.849Z,97607.94
2022-09-17T05:21:10.754Z,97599.97
2022-09-17T05:23:37.503Z,97600.81
2022-09-17T05:26:04.352Z,97583.06
2022-09-17T05:28:31.073Z,97596.31
2022-09-17T05:31:01.823Z,97596.31
2022-09-17T05:33:29.370Z,97577.03
2022-09-17T05:35:56.347Z,97561.38
2022-09-17T05:38:23.054Z,97577.63
2022-09-17T05:40:50.598Z,97581.13
2022-09-17T05:43:17.609Z,97592.56
2022-09-17T05:45:44.539Z,97615.88
2022-09-17T05:48:16.581Z,97611.41
2022-09-17T05:50:43.335Z,97621.19
2022-09-17T05:53:14.069Z,97634.19
2022-09-17T05:55:40.905Z,97640.59
2022-09-17T05:58:12.693Z,97643.97
2022-09-17T06:00:41.248Z,97643.09
2022-09-17T06:03:13.342Z,97636.00
2022-09-17T06:05:40.605Z,97631.38
2022-09-17T06:08:07.878Z,97637.13
2022-09-17T06:10:38.529Z,97630.72
2022-09-17T06:13:05.596Z,97618.97
2022-09-17T06:15:32.249Z,97610.88
2022-09-17T06:17:58.925Z,97621.38
2022-09-17T06:20:25.682Z,97618.72
2022-09-17T06:22:57.183Z,97630.16
2022-09-17T06:25:24.057Z,97631.00
2022-09-17T06:27:50.786Z,97630.16
2022-09-17T06:30:17.550Z,97631.38
2022-09-17T06:32:44.531Z,97638.66
2022-09-17T06:35:11.212Z,97635.28
2022-09-17T06:37:40.341Z,97638.66
2022-09-17T06:40:08.490Z,97646.63
2022-09-17T06:42:35.278Z,97654.59
2022-09-17T06:45:07.136Z,97641.09
2022-09-17T06:47:35.393Z,97646.19
2022-09-17T06:50:03.079Z,97650.31
2022-09-17T06:52:30.531Z,97654.91
2022-09-17T06:54:57.988Z,97650.31
2022-09-17T06:57:24.905Z,97656.53
2022-09-17T06:59:52.082Z,97658.19
2022-09-17T07:02:18.698Z,97673.53
2022-09-17T07:04:47.059Z,97663.31
2022-09-17T07:07:13.826Z,97650.00
2022-09-17T07:09:40.526Z,97664.81
2022-09-17T07:12:08.628Z,97666.16
2022-09-17T07:14:35.313Z,97669.66
2022-09-17T07:17:02.024Z,97670.13
2022-09-17T07:19:28.862Z,97669.72
2022-09-17T07:21:55.935Z,97655.50
2022-09-17T07:24:22.848Z,97652.69
2022-09-17T07:26:51.254Z,97666.09
2022-09-17T07:29:19.119Z,97657.69
2022-09-17T07:31:47.209Z,97655.16
2022-09-17T07:34:14.759Z,97654.06
2022-09-17T07:36:45.067Z,97657.63
2022-09-17T07:39:13.623Z,97680.25
2022-09-17T07:41:40.834Z,97674.97
2022-09-17T07:44:09.759Z,97660.25
2022-09-17T07:46:37.260Z,97667.97
2022-09-17T07:49:04.059Z,97699.34
2022-09-17T07:51:30.865Z,97709.13
2022-09-17T07:53:59.132Z,97713.22
2022-09-17T07:56:27.181Z,97715.75
2022-09-17T07:58:55.126Z,97731.66
2022-09-17T08:01:22.749Z,97733.81
2022-09-17T08:03:52.129Z,97740.00
2022-09-17T08:06:21.961Z,97754.50
2022-09-17T08:08:49.284Z,97783.66
2022-09-17T08:11:38.081Z,97779.31
2022-09-17T08:14:05.823Z,97794.00
2022-09-17T08:16:32.522Z,97801.84
2022-09-17T08:18:59.304Z,97796.16
2022-09-17T08:21:26.009Z,97785.09
2022-09-17T08:23:52.931Z,97792.91
2022-09-17T08:26:22.929Z,97805.81
2022-09-17T08:28:57.137Z,97804.84
2022-09-17T08:31:26.693Z,97793.53
2022-09-17T08:33:53.414Z,97783.13
2022-09-17T08:36:22.703Z,97760.25
2022-09-17T08:38:53.367Z,97756.63
2022-09-17T08:41:34.115Z,97733.25
2022-09-17T08:44:17.434Z,97723.09
2022-09-17T08:46:49.376Z,97735.75
2022-09-17T08:49:40.273Z,97716.81
2022-09-17T08:52:15.957Z,97723.53
2022-09-17T08:54:47.242Z,97741.72
2022-09-17T08:57:46.193Z,97764.88
2022-09-17T09:00:16.297Z,97766.06
2022-09-17T09:03:02.366Z,97764.88
2022-09-17T09:05:44.730Z,97744.13
2022-09-17T09:08:27.136Z,97773.66
2022-09-17T09:10:57.373Z,97790.28
2022-09-17T09:13:33.897Z,97803.19
2022-09-17T09:16:11.787Z,97791.38
2022-09-17T09:18:41.172Z,97790.28
2022-09-17T09:21:28.433Z,97774.38
2022-09-17T09:23:58.667Z,97774.00
2022-09-17T09:26:46.225Z,97760.97
2022-09-17T09:29:35.382Z,97754.63
2022-09-17T09:32:27.643Z,97753.47
2022-09-17T09:34:56.073Z,97756.94
2022-09-17T09:37:31.486Z,97745.94
2022-09-17T09:40:07.786Z,97746.41
2022-09-17T09:42:36.639Z,97738.44
2022-09-17T09:45:13.955Z,97762.16
2022-09-17T09:48:01.117Z,97758.06
2022-09-17T09:51:04.567Z,97765.97
2022-09-17T09:53:49.306Z,97760.44
2022-09-17T09:56:58.839Z,97750.94
2022-09-17T09:59:26.093Z,97751.03
2022-09-17T10:01:52.978Z,97762.53
2022-09-17T10:04:27.661Z,97774.56
2022-09-17T10:07:02.997Z,97785.47
2022-09-17T10:09:32.539Z,97788.25
2022-09-17T10:12:15.467Z,97756.78
2022-09-17T10:14:44.586Z,97741.38
2022-09-17T10:17:17.542Z,97747.28
2022-09-17T10:19:45.669Z,97745.28
2022-09-17T10:22:18.088Z,97766.16
2022-09-17T10:24:45.392Z,97783.94
2022-09-17T10:27:19.346Z,97765.28
2022-09-17T10:29:49.225Z,97748.38
2022-09-17T10:32:17.625Z,97750.72
2022-09-17T10:35:24.889Z,97746.94
2022-09-17T10:37:53.157Z,97740.38
2022-09-17T10:40:19.907Z,97750.56
2022-09-17T10:42:51.192Z,97771.25
2022-09-17T10:45:29.514Z,97765.78
2022-09-17T10:47:58.381Z,97766.88
2022-09-17T10:50:31.123Z,97758.06
2022-09-17T10:53:07.088Z,97745.50
2022-09-17T10:55:45.666Z,97730.28
2022-09-17T10:58:27.373Z,97730.94
2022-09-17T11:01:21.695Z,97732.22
2022-09-17T11:04:17.019Z,97703.72
2022-09-17T11:06:58.511Z,97691.97
2022-09-17T11:09:46.756Z,97677.00
2022-09-17T11:12:13.797Z,97693.59
2022-09-17T11:15:01.775Z,97694.13
2022-09-17T11:17:39.870Z,97701.22
2022-09-17T11:20:49.374Z,97686.94
2022-09-17T11:23:51.278Z,97692.91
2022-09-17T11:26:29.878Z,97715.31
2022-09-17T11:29:26.229Z,97722.28
2022-09-17T11:32:17.792Z,97730.59
2022-09-17T11:34:45.114Z,97704.56
2022-09-17T11:37:14.607Z,97701.84
2022-09-17T11:39:57.505Z,97697.66
2022-09-17T11:43:04.855Z,97677.84
2022-09-17T11:45:37.283Z,97673.06
2022-09-17T11:48:10.986Z,97668.72
2022-09-17T11:50:45.215Z,97666.22
2022-09-17T11:53:22.481Z,97641.63
2022-09-17T11:56:27.780Z,97642.44
2022-09-17T11:59:01.426Z,97634.75
2022-09-17T12:01:38.655Z,97627.50
2022-09-17T12:04:43.889Z,97615.78
2022-09-17T12:07:19.655Z,97620.00
2022-09-17T12:09:53.663Z,97631.56
2022-09-17T12:12:47.777Z,97649.19
2022-09-17T12:15:21.612Z,97646.97
2022-09-17T12:18:20.538Z,97659.38
2022-09-17T12:20:48.016Z,97655.19
2022-09-17T12:23:33.773Z,97636.44
2022-09-17T12:26:00.439Z,97644.72
2022-09-17T12:28:50.391Z,97615.91
2022-09-17T12:31:29.134Z,97613.16
2022-09-17T12:34:17.386Z,97576.81
2022-09-17T12:36:59.703Z,97603.34
2022-09-17T12:40:04.940Z,97617.78
2022-09-17T12:42:56.502Z,97611.78
2022-09-17T12:45:50.609Z,97630.56
2022-09-17T12:48:35.942Z,97655.06
2022-09-17T12:51:23.184Z,97668.06
2022-09-17T12:53:56.250Z,97664.88
2022-09-17T12:56:50.892Z,97668.81
2022-09-17T12:59:20.396Z,97659.16
2022-09-17T13:02:02.615Z,97656.72
2022-09-17T13:04:49.845Z,97648.78
2022-09-17T13:07:43.475Z,97642.34
2022-09-17T13:10:46.398Z,97641.13
2022-09-17T13:13:34.138Z,97630.34
2022-09-17T13:16:13.276Z,97631.44
2022-09-17T13:19:15.685Z,97629.97
2022-09-17T13:22:12.837Z,97643.72
2022-09-17T13:24:40.475Z,97662.66
2022-09-17T13:27:22.814Z,97659.13
2022-09-17T13:29:56.153Z,97662.22
2022-09-17T13:32:35.414Z,97660.41
2022-09-17T13:35:24.871Z,97663.88
2022-09-17T13:38:02.287Z,97660.13
2022-09-17T13:40:34.421Z,97655.53
2022-09-17T13:43:04.211Z,97651.47
2022-09-17T13:45:33.036Z,97655.13
2022-09-17T13:48:05.225Z,97651.63
2022-09-17T13:50:43.097Z,97649.66
2022-09-17T13:53:13.031Z,97674.00
2022-09-17T13:55:44.443Z,97652.06
2022-09-17T13:58:19.964Z,97663.53
2022-09-17T14:01:02.375Z,97683.78
2022-09-17T14:03:30.708Z,97674.88
2022-09-17T14:06:11.043Z,97670.41
2022-09-17T14:08:43.612Z,97659.09
2022-09-17T14:11:22.285Z,97648.75
2022-09-17T14:13:50.680Z,97648.19
2022-09-17T14:16:28.644Z,97635.34
2022-09-17T14:19:02.338Z,97623.72
2022-09-17T14:21:34.063Z,97633.41
2022-09-17T14:24:20.249Z,97630.75
2022-09-17T14:27:02.203Z,97622.63
2022-09-17T14:29:48.829Z,97622.63
2022-09-17T14:32:30.122Z,97629.75
2022-09-17T14:34:57.317Z,97632.41
2022-09-17T14:37:24.317Z,97632.56
2022-09-17T14:39:52.251Z,97628.22
2022-09-17T14:42:35.122Z,97634.13
2022-09-17T14:45:06.755Z,97634.78
2022-09-17T14:47:33.662Z,97647.41
2022-09-17T14:50:26.063Z,97648.63
2022-09-17T14:52:54.513Z,97654.09
2022-09-17T14:55:24.407Z,97654.66
2022-09-17T14:57:57.209Z,97654.50
2022-09-17T15:00:51.646Z,97654.38
2022-09-17T15:03:23.228Z,97650.31
2022-09-17T15:05:52.705Z,97647.66
2022-09-17T15:08:25.316Z,97646.81
2022-09-17T15:10:58.928Z,97645.00
2022-09-17T15:13:31.560Z,97631.84
2022-09-17T15:16:02.611Z,97632.13
2022-09-17T15:18:37.332Z,97626.38
2022-09-17T15:21:11.271Z,97635.47
2022-09-17T15:23:38.225Z,97627.38
2022-09-17T15:26:05.731Z,97629.88
2022-09-17T15:28:41.625Z,97628.06
2022-09-17T15:31:18.722Z,97629.72
2022-09-17T15:33:47.111Z,97627.34
2022-09-17T15:36:23.994Z,97625.81
2022-09-17T15:38:51.583Z,97631.50
2022-09-17T15:41:33.551Z,97635.16
2022-09-17T15:44:29.838Z,97628.41
2022-09-17T15:47:36.018Z,97632.34
2022-09-17T15:50:16.530Z,97619.59
2022-09-17T15:52:43.794Z,97631.47
2022-09-17T15:55:29.510Z,97626.69
2022-09-17T15:58:01.613Z,97600.88
2022-09-17T16:00:28.615Z,97624.19
2022-09-17T16:02:55.592Z,97609.78
2022-09-17T16:05:25.433Z,97609.22
2022-09-17T16:07:52.188Z,97603.56
2022-09-17T16:10:19.379Z,97592.41
2022-09-17T16:12:49.429Z,97603.72
2022-09-17T16:15:17.554Z,97603.84
2022-09-17T16:17:48.366Z,97590.84
2022-09-17T16:20:23.796Z,97603.38
2022-09-17T16:22:52.408Z,97602.28
2022-09-17T16:25:24.328Z,97617.09
2022-09-17T16:27:54.783Z,97605.00
2022-09-17T16:30:23.297Z,97615.34
2022-09-17T16:32:50.371Z,97601.38
2022-09-17T16:35:21.077Z,97608.03
2022-09-17T16:37:50.033Z,97600.63
2022-09-17T16:40:18.503Z,97602.56
2022-09-17T16:42:45.706Z,97621.41
2022-09-17T16:45:12.820Z,97620.56
2022-09-17T16:47:40.565Z,97625.16
2022-09-17T16:50:10.222Z,97635.63
2022-09-17T16:52:37.249Z,97641.19
2022-09-17T16:55:05.435Z,97629.16
2022-09-17T16:57:32.883Z,97639.06
2022-09-17T16:59:59.833Z,97630.00
2022-09-17T17:02:26.738Z,97639.22
2022-09-17T17:04:54.314Z,97635.94
2022-09-17T17:07:21.306Z,97638.03
2022-09-17T17:09:48.062Z,97631.91
2022-09-17T17:12:14.774Z,97631.28
2022-09-17T17:14:41.479Z,97646.63
2022-09-17T17:17:08.177Z,97651.09
2022-09-17T17:19:35.991Z,97651.22
2022-09-17T17:22:02.696Z,97665.56
2022-09-17T17:24:29.563Z,97664.72
2022-09-17T17:26:56.237Z,97660.25
2022-09-17T17:29:22.987Z,97667.53
2022-09-17T17:31:49.711Z,97673.78
2022-09-17T17:34:16.916Z,97676.31
2022-09-17T17:36:43.900Z,97671.97
2022-09-17T17:39:10.953Z,97662.25
2022-09-17T17:41:39.605Z,97688.13
2022-09-17T17:44:07.161Z,97691.88
2022-09-17T17:46:33.942Z,97657.22
2022-09-17T17:49:00.766Z,97670.72
2022-09-17T17:51:27.670Z,97686.50
2022-09-17T17:53:54.418Z,97688.31
2022-09-17T17:56:21.181Z,97697.38
2022-09-17T17:58:48.017Z,97695.56
2022-09-17T18:01:21.742Z,97651.97
2022-09-17T18:03:48.647Z,97720.88
2022-09-17T18:06:15.850Z,97652.69
2022-09-17T18:08:43.697Z,97705.81
2022-09-17T18:11:14.134Z,97714.72
